Terminal Aerodrome Forecast
Issued by NWS

Home | Current Version | Previous Version | Text Only | Print | Product List | Glossary On
Versions: 1 2 3 4 5 6 7 8 9 10 11 12 13 14 15 16 17 18 19 20 21 22 23 24
000
FTUS42 KMFL 231720
TAFFXE
TAF
KFXE 231720Z 2318/2418 10010KT P6SM -SHRA VCTS SCT025CB BKN060
     FM232000 09006KT P6SM VCSH SCT025 BKN100
     FM240100 VRB03KT P6SM FEW025
     FM241400 12005KT P6SM SCT030=

USA.gov is the U.S. government's official web portal to all federal, state and local government web resources and services.